createdAt,value
2023-04-10T00:02:04.149Z,10.70
2023-04-10T00:04:50.284Z,10.40
2023-04-10T00:07:36.183Z,10.50
2023-04-10T00:10:22.447Z,10.40
2023-04-10T00:13:08.392Z,10.30
2023-04-10T00:15:54.503Z,10.20
2023-04-10T00:18:40.127Z,10.20
2023-04-10T00:21:26.464Z,10.50
2023-04-10T00:24:12.433Z,10.80
2023-04-10T00:26:58.532Z,10.90
2023-04-10T00:29:44.252Z,10.90
2023-04-10T00:32:30.608Z,10.90
2023-04-10T00:35:17.036Z,11.00
2023-04-10T00:38:03.552Z,11.00
2023-04-10T00:40:49.865Z,11.10
2023-04-10T00:43:35.751Z,11.20
2023-04-10T00:46:22.336Z,11.70
2023-04-10T00:49:09.653Z,11.90
2023-04-10T00:51:58.362Z,11.80
2023-04-10T00:54:44.766Z,11.50
2023-04-10T00:57:30.937Z,11.10
2023-04-10T01:00:17.583Z,11.00
2023-04-10T01:03:04.167Z,10.80
2023-04-10T01:06:15.401Z,10.70
2023-04-10T01:09:27.505Z,10.70
2023-04-10T01:12:17.581Z,10.60
2023-04-10T01:15:28.776Z,10.80
2023-04-10T01:18:18.337Z,10.50
2023-04-10T01:21:08.169Z,10.50
2023-04-10T01:24:02.796Z,10.60
2023-04-10T01:27:32.641Z,10.80
2023-04-10T01:30:21.197Z,10.50
2023-04-10T01:33:13.015Z,10.60
2023-04-10T01:36:03.286Z,10.60
2023-04-10T01:38:51.793Z,10.40
2023-04-10T01:41:41.725Z,10.00
2023-04-10T01:44:31.802Z,10.10
2023-04-10T01:47:18.410Z,10.30
2023-04-10T01:50:06.271Z,10.40
2023-04-10T01:52:52.990Z,10.10
2023-04-10T01:55:44.712Z,10.20
2023-04-10T01:58:31.606Z,10.10
2023-04-10T02:01:29.717Z,10.10
2023-04-10T02:04:17.460Z,10.20
2023-04-10T02:07:27.586Z,10.10
2023-04-10T02:10:25.269Z,9.90
2023-04-10T02:13:14.785Z,9.80
2023-04-10T02:16:04.368Z,9.70
2023-04-10T02:18:51.740Z,9.70
2023-04-10T02:21:40.162Z,9.60
2023-04-10T02:24:26.329Z,9.70
2023-04-10T02:27:12.715Z,9.80
2023-04-10T02:29:58.539Z,9.70
2023-04-10T02:32:45.389Z,9.70
2023-04-10T02:35:31.748Z,10.00
2023-04-10T02:38:17.838Z,10.00
2023-04-10T02:41:03.532Z,10.00
2023-04-10T02:43:49.441Z,9.80
2023-04-10T02:46:44.369Z,9.70
2023-04-10T02:49:31.708Z,9.60
2023-04-10T02:52:20.951Z,9.40
2023-04-10T02:55:07.312Z,9.30
2023-04-10T02:57:55.877Z,9.40
2023-04-10T03:00:41.917Z,9.30
2023-04-10T03:03:42.460Z,9.30
2023-04-10T03:06:29.486Z,9.30
2023-04-10T03:09:17.151Z,9.40
2023-04-10T03:12:02.949Z,9.30
2023-04-10T03:14:48.777Z,9.30
2023-04-10T03:17:35.113Z,9.20
2023-04-10T03:20:20.975Z,9.20
2023-04-10T03:23:09.049Z,9.30
2023-04-10T03:25:55.109Z,9.40
2023-04-10T03:28:44.988Z,9.40
2023-04-10T03:31:31.126Z,9.50
2023-04-10T03:34:19.866Z,9.40
2023-04-10T03:37:05.630Z,9.60
2023-04-10T03:39:51.618Z,9.50
2023-04-10T03:42:39.617Z,9.40
2023-04-10T03:45:26.280Z,9.30
2023-04-10T03:48:12.130Z,9.20
2023-04-10T03:51:02.153Z,9.50
2023-04-10T03:53:48.112Z,9.40
2023-04-10T03:56:34.857Z,9.50
2023-04-10T03:59:24.225Z,9.50
2023-04-10T04:02:12.256Z,9.40
2023-04-10T04:05:00.802Z,9.50
2023-04-10T04:08:06.975Z,9.40
2023-04-10T04:11:13.459Z,9.30
2023-04-10T04:14:19.252Z,9.40
2023-04-10T04:17:25.431Z,9.30
2023-04-10T04:20:23.644Z,9.70
2023-04-10T04:23:21.534Z,9.80
2023-04-10T04:26:29.460Z,9.90
2023-04-10T04:29:31.728Z,9.60
2023-04-10T04:32:25.366Z,9.50
2023-04-10T04:35:34.424Z,9.60
2023-04-10T04:38:49.312Z,9.30
2023-04-10T04:45:41.425Z,9.10
2023-04-10T04:48:35.623Z,9.20
2023-04-10T04:51:43.973Z,9.10
2023-04-10T04:54:49.851Z,9.20
2023-04-10T04:57:51.398Z,9.40
2023-04-10T05:00:44.793Z,9.60
2023-04-10T05:04:02.821Z,9.80
2023-04-10T05:07:07.267Z,10.00
2023-04-10T05:10:09.573Z,9.90
2023-04-10T05:13:06.449Z,10.00
2023-04-10T05:16:24.055Z,9.80
2023-04-10T05:19:29.884Z,9.40
2023-04-10T05:22:48.399Z,9.10
2023-04-10T05:25:45.608Z,8.90
2023-04-10T05:28:55.989Z,9.20
2023-04-10T05:31:53.854Z,9.20
2023-04-10T05:35:06.105Z,9.30
2023-04-10T05:38:03.378Z,9.40
2023-04-10T05:41:15.032Z,9.40
2023-04-10T05:44:24.796Z,9.30
2023-04-10T05:47:21.468Z,9.30
2023-04-10T05:50:19.354Z,9.40
2023-04-10T05:53:37.554Z,9.50
2023-04-10T05:56:32.356Z,9.90
2023-04-10T05:59:37.182Z,9.80
2023-04-10T06:02:42.499Z,10.00
2023-04-10T06:05:35.946Z,10.10
2023-04-10T06:08:24.655Z,10.00
2023-04-10T06:11:10.703Z,9.90
2023-04-10T06:13:56.944Z,9.90
2023-04-10T06:16:49.448Z,10.00
2023-04-10T06:19:35.183Z,10.00
2023-04-10T06:22:21.463Z,10.00
2023-04-10T06:25:07.357Z,10.40
2023-04-10T06:27:53.686Z,10.30
2023-04-10T06:30:39.683Z,10.30
2023-04-10T06:33:26.849Z,10.20
2023-04-10T06:36:13.281Z,10.30
2023-04-10T06:39:06.747Z,10.70
2023-04-10T06:41:53.186Z,10.30
2023-04-10T06:45:01.672Z,10.80
2023-04-10T06:47:47.721Z,10.80
2023-04-10T06:50:33.773Z,11.10
2023-04-10T06:53:19.603Z,11.00
2023-04-10T06:56:07.407Z,10.50
2023-04-10T06:58:53.747Z,10.50
2023-04-10T07:01:39.943Z,10.60
2023-04-10T07:04:26.327Z,10.60
2023-04-10T07:07:13.554Z,11.10
2023-04-10T07:09:59.457Z,10.60
2023-04-10T07:12:45.817Z,10.70
2023-04-10T07:15:31.335Z,11.10
2023-04-10T07:18:17.338Z,10.90
2023-04-10T07:21:02.960Z,11.50
2023-04-10T07:23:48.667Z,11.10
2023-04-10T07:26:34.797Z,10.90
2023-04-10T07:29:21.123Z,11.00
2023-04-10T07:32:07.165Z,11.00
2023-04-10T07:34:52.800Z,11.10
2023-04-10T07:37:39.991Z,11.20
2023-04-10T07:40:25.598Z,11.20
2023-04-10T07:43:11.507Z,11.40
2023-04-10T07:45:57.978Z,11.60
2023-04-10T07:48:44.836Z,11.80
2023-04-10T07:51:31.067Z,12.10
2023-04-10T07:54:16.918Z,12.00
2023-04-10T07:57:03.267Z,12.30
2023-04-10T07:59:48.962Z,12.50
2023-04-10T08:02:35.268Z,12.80
2023-04-10T08:05:21.891Z,12.70
2023-04-10T08:08:09.098Z,13.00
2023-04-10T08:10:54.780Z,13.20
2023-04-10T08:13:40.989Z,13.90
2023-04-10T08:16:27.509Z,14.70
2023-04-10T08:19:13.310Z,14.50
2023-04-10T08:21:59.223Z,14.70
2023-04-10T08:24:45.421Z,15.70
2023-04-10T08:27:31.744Z,16.30
2023-04-10T08:30:17.644Z,16.00
2023-04-10T08:33:04.285Z,15.40
2023-04-10T08:35:50.686Z,16.10
2023-04-10T08:38:37.065Z,16.00
2023-04-10T08:41:23.104Z,15.90
2023-04-10T08:44:08.865Z,16.30
2023-04-10T08:46:58.666Z,16.90
2023-04-10T08:49:51.887Z,18.00
2023-04-10T08:52:43.448Z,18.10
2023-04-10T08:55:29.213Z,17.70
2023-04-10T08:58:16.431Z,17.70
2023-04-10T09:01:02.676Z,16.00
2023-04-10T09:03:49.050Z,16.70
2023-04-10T09:06:35.050Z,17.20
2023-04-10T09:09:21.044Z,16.30
2023-04-10T09:12:07.637Z,17.40
2023-04-10T09:14:53.973Z,18.80
2023-04-10T09:17:59.198Z,17.40
2023-04-10T09:20:51.619Z,16.80
2023-04-10T09:23:37.668Z,18.20
2023-04-10T09:26:29.374Z,17.20
2023-04-10T09:29:16.978Z,17.70
2023-04-10T09:32:03.431Z,18.00
2023-04-10T09:34:55.037Z,16.80
2023-04-10T09:37:42.425Z,17.10
2023-04-10T09:40:28.319Z,18.20
2023-04-10T09:43:27.419Z,18.50
2023-04-10T09:46:29.000Z,20.10
2023-04-10T09:49:15.099Z,20.90
2023-04-10T09:52:04.394Z,21.50
2023-04-10T09:54:50.427Z,20.40
2023-04-10T09:57:36.760Z,21.90
2023-04-10T10:00:23.143Z,20.30
2023-04-10T10:03:14.507Z,20.00
2023-04-10T10:06:00.843Z,21.70
2023-04-10T10:08:47.563Z,20.50
2023-04-10T10:11:36.138Z,19.20
2023-04-10T10:14:25.896Z,18.90
2023-04-10T10:17:14.509Z,20.20
2023-04-10T10:20:07.451Z,21.50
2023-04-10T10:22:54.869Z,19.10
2023-04-10T10:25:41.959Z,18.50
2023-04-10T10:28:31.542Z,19.60
2023-04-10T10:31:18.757Z,20.20
2023-04-10T10:34:07.553Z,18.90
2023-04-10T10:36:53.686Z,18.30
2023-04-10T10:40:01.128Z,19.10
2023-04-10T10:43:08.456Z,19.00
2023-04-10T10:46:16.191Z,19.10
2023-04-10T10:49:02.464Z,19.30
2023-04-10T10:51:50.256Z,19.70
2023-04-10T10:54:42.214Z,20.80
2023-04-10T10:57:53.491Z,21.30
2023-04-10T11:00:51.646Z,21.00
2023-04-10T11:03:37.989Z,21.90
2023-04-10T11:06:51.267Z,23.20
2023-04-10T11:09:57.339Z,22.70
2023-04-10T11:13:16.107Z,25.40
2023-04-10T11:16:03.935Z,22.40
2023-04-10T11:18:59.442Z,20.70
2023-04-10T11:22:08.115Z,20.80
2023-04-10T11:24:59.149Z,22.00
2023-04-10T11:27:53.001Z,22.40
2023-04-10T11:30:39.168Z,20.90
2023-04-10T11:33:25.697Z,20.70
2023-04-10T11:36:15.952Z,21.60
2023-04-10T11:39:06.086Z,21.50
2023-04-10T11:41:56.587Z,21.20
2023-04-10T11:44:43.446Z,22.00
2023-04-10T11:47:29.791Z,21.50
2023-04-10T11:50:15.689Z,24.40
2023-04-10T11:53:01.739Z,26.00
2023-04-10T11:55:48.305Z,25.00
2023-04-10T11:58:34.261Z,21.70
2023-04-10T12:01:22.606Z,22.80
2023-04-10T12:04:19.433Z,23.40
2023-04-10T12:07:05.520Z,27.20
2023-04-10T12:09:58.339Z,23.10
2023-04-10T12:12:44.430Z,21.90
2023-04-10T12:15:30.893Z,21.40
2023-04-10T12:18:16.920Z,20.30
2023-04-10T12:21:05.548Z,19.80
2023-04-10T12:23:53.035Z,21.00
2023-04-10T12:26:39.379Z,20.30
2023-04-10T12:29:27.977Z,21.60
2023-04-10T12:32:14.276Z,20.70
2023-04-10T12:35:03.705Z,21.90
2023-04-10T12:37:54.622Z,21.30
2023-04-10T12:40:58.463Z,20.60
2023-04-10T12:43:45.165Z,23.40
2023-04-10T12:46:31.608Z,20.90
2023-04-10T12:49:21.271Z,19.70
2023-04-10T12:52:07.055Z,19.30
2023-04-10T12:54:52.842Z,19.60
2023-04-10T12:57:40.745Z,19.30
2023-04-10T13:00:26.827Z,18.70
2023-04-10T13:03:12.831Z,18.40
2023-04-10T13:05:58.498Z,19.40
2023-04-10T13:08:44.418Z,19.50
2023-04-10T13:11:30.178Z,18.90
2023-04-10T13:14:16.106Z,18.50
2023-04-10T13:17:01.826Z,18.10
2023-04-10T13:19:48.151Z,17.80
2023-04-10T13:22:33.875Z,18.50
2023-04-10T13:25:19.597Z,19.30
2023-04-10T13:28:10.258Z,18.50
2023-04-10T13:30:56.629Z,18.30
2023-04-10T13:33:48.802Z,17.80
2023-04-10T13:36:34.748Z,17.90
2023-04-10T13:39:20.721Z,17.90
2023-04-10T13:42:06.789Z,18.50
2023-04-10T13:44:52.855Z,17.90
2023-04-10T13:47:38.898Z,17.90
2023-04-10T13:50:24.435Z,17.70
2023-04-10T13:53:10.408Z,17.70
2023-04-10T13:55:57.700Z,18.10
2023-04-10T13:58:46.489Z,17.90
2023-04-10T14:01:33.417Z,17.70
2023-04-10T14:04:19.660Z,18.20
2023-04-10T14:07:06.150Z,17.90
2023-04-10T14:09:51.994Z,17.90
2023-04-10T14:12:39.202Z,18.20
2023-04-10T14:15:25.698Z,17.80
2023-04-10T14:18:12.346Z,17.70
2023-04-10T14:20:58.230Z,17.90
2023-04-10T14:23:44.304Z,18.10
2023-04-10T14:26:30.788Z,18.10
2023-04-10T14:29:20.185Z,18.20
2023-04-10T14:32:08.770Z,18.70
2023-04-10T14:34:54.829Z,18.10
2023-04-10T14:37:41.426Z,17.90
2023-04-10T14:40:27.217Z,18.00
2023-04-10T14:43:12.927Z,17.70
2023-04-10T14:45:58.827Z,17.70
2023-04-10T14:48:44.699Z,18.00
2023-04-10T14:51:30.841Z,17.70
2023-04-10T14:54:19.851Z,17.80
2023-04-10T14:57:05.678Z,17.50
2023-04-10T14:59:51.777Z,17.30
2023-04-10T15:02:38.805Z,17.40
2023-04-10T15:05:25.610Z,17.50
2023-04-10T15:08:11.811Z,17.90
2023-04-10T15:10:58.076Z,17.90
2023-04-10T15:13:44.139Z,18.00
2023-04-10T15:16:30.722Z,18.30
2023-04-10T15:19:16.766Z,18.20
2023-04-10T15:22:02.854Z,17.70
2023-04-10T15:24:50.936Z,18.20
2023-04-10T15:27:37.254Z,18.20
2023-04-10T15:30:26.104Z,17.90
2023-04-10T15:33:15.235Z,18.40
2023-04-10T15:36:06.570Z,18.20
2023-04-10T15:38:53.057Z,17.80
2023-04-10T15:41:38.851Z,17.60
2023-04-10T15:44:25.332Z,17.40
2023-04-10T15:47:11.600Z,17.80
2023-04-10T15:49:57.672Z,17.70
2023-04-10T15:52:43.498Z,17.80
2023-04-10T15:55:46.963Z,17.40
2023-04-10T15:58:34.466Z,17.20
2023-04-10T16:01:20.954Z,17.00
2023-04-10T16:04:07.191Z,17.20
2023-04-10T16:06:53.343Z,17.60
2023-04-10T16:09:39.137Z,17.90
2023-04-10T16:12:25.102Z,17.90
2023-04-10T16:15:11.189Z,18.00
2023-04-10T16:17:57.914Z,17.90
2023-04-10T16:20:43.667Z,17.60
2023-04-10T16:23:29.340Z,17.30
2023-04-10T16:26:15.561Z,17.60
2023-04-10T16:29:01.870Z,17.90
2023-04-10T16:31:48.610Z,17.90
2023-04-10T16:34:35.497Z,17.70
2023-04-10T16:37:21.424Z,18.00
2023-04-10T16:40:07.975Z,17.90
2023-04-10T16:42:54.162Z,17.50
2023-04-10T16:45:40.125Z,17.50
2023-04-10T16:48:27.254Z,17.90
2023-04-10T16:51:17.739Z,17.70
2023-04-10T16:54:04.076Z,17.80
2023-04-10T16:56:50.154Z,17.80
2023-04-10T16:59:36.193Z,17.60
2023-04-10T17:02:25.092Z,17.70
2023-04-10T17:05:11.783Z,17.20
2023-04-10T17:07:57.601Z,17.20
2023-04-10T17:10:43.871Z,17.50
2023-04-10T17:13:30.274Z,17.40
2023-04-10T17:16:16.499Z,17.40
2023-04-10T17:19:02.424Z,17.50
2023-04-10T17:21:48.472Z,17.40
2023-04-10T17:24:34.624Z,17.50
2023-04-10T17:27:20.425Z,17.50
2023-04-10T17:30:10.717Z,17.50
2023-04-10T17:32:57.332Z,17.30
2023-04-10T17:35:43.748Z,17.20
2023-04-10T17:38:30.159Z,17.00
2023-04-10T17:41:16.568Z,17.20
2023-04-10T17:44:03.775Z,16.90
2023-04-10T17:46:49.674Z,16.60
2023-04-10T17:49:35.875Z,16.40
2023-04-10T17:52:22.645Z,16.40
2023-04-10T17:55:09.184Z,16.40
2023-04-10T17:57:57.598Z,16.40
2023-04-10T18:00:43.934Z,16.20
2023-04-10T18:03:30.199Z,16.10
2023-04-10T18:06:16.031Z,16.20
2023-04-10T18:09:02.372Z,16.20
2023-04-10T18:11:51.036Z,16.10
2023-04-10T18:14:37.381Z,16.10
2023-04-10T18:17:23.430Z,16.00
2023-04-10T18:20:09.734Z,15.80
2023-04-10T18:22:55.764Z,15.70
2023-04-10T18:25:41.821Z,15.60
2023-04-10T18:28:28.208Z,15.60
2023-04-10T18:31:16.878Z,15.60
2023-04-10T18:34:07.990Z,15.70
2023-04-10T18:36:55.857Z,15.90
2023-04-10T18:39:42.091Z,16.00
2023-04-10T18:42:28.161Z,15.90
2023-04-10T18:45:14.452Z,16.30
2023-04-10T18:48:00.817Z,16.40
2023-04-10T18:50:47.201Z,16.30
2023-04-10T18:53:33.129Z,16.40
2023-04-10T18:56:19.015Z,16.60
2023-04-10T18:59:05.151Z,16.30
2023-04-10T19:01:51.633Z,16.70
2023-04-10T19:04:38.069Z,16.80
2023-04-10T19:07:23.891Z,16.90
2023-04-10T19:10:10.513Z,17.00
2023-04-10T19:12:57.453Z,16.80
2023-04-10T19:15:47.910Z,16.60
2023-04-10T19:18:33.685Z,16.40
2023-04-10T19:21:19.881Z,16.30
2023-04-10T19:24:05.825Z,16.30
2023-04-10T19:26:54.041Z,16.30
2023-04-10T19:29:41.138Z,16.20
2023-04-10T19:32:27.456Z,16.10
2023-04-10T19:35:13.546Z,15.90
2023-04-10T19:37:59.444Z,15.70
2023-04-10T19:40:45.574Z,15.60
2023-04-10T19:43:32.002Z,15.30
2023-04-10T19:46:19.304Z,15.40
2023-04-10T19:49:05.981Z,15.40
2023-04-10T19:51:52.487Z,15.40
2023-04-10T19:54:38.765Z,14.50
2023-04-10T19:57:24.614Z,15.40
2023-04-10T20:00:11.324Z,14.90
2023-04-10T20:03:00.316Z,14.40
2023-04-10T20:05:46.043Z,14.50
2023-04-10T20:08:32.314Z,14.60
2023-04-10T20:11:17.853Z,14.90
2023-04-10T20:14:03.700Z,15.00
2023-04-10T20:16:49.936Z,14.80
2023-04-10T20:19:35.978Z,14.60
2023-04-10T20:22:22.209Z,14.40
2023-04-10T20:25:08.779Z,14.40
2023-04-10T20:27:54.348Z,14.20
2023-04-10T20:30:40.306Z,14.20
2023-04-10T20:33:26.967Z,14.20
2023-04-10T20:36:13.687Z,14.00
2023-04-10T20:38:59.735Z,13.90
2023-04-10T20:41:45.815Z,14.00
2023-04-10T20:44:31.786Z,13.70
2023-04-10T20:47:17.988Z,13.60
2023-04-10T20:50:04.114Z,13.50
2023-04-10T20:52:50.597Z,13.30
2023-04-10T20:55:39.894Z,13.30
2023-04-10T20:58:25.714Z,13.30
2023-04-10T21:01:11.764Z,13.40
2023-04-10T21:03:58.867Z,13.30
2023-04-10T21:06:44.661Z,13.20
2023-04-10T21:09:30.967Z,13.10
2023-04-10T21:12:16.669Z,13.00
2023-04-10T21:15:02.793Z,12.90
2023-04-10T21:17:48.822Z,13.00
2023-04-10T21:20:35.533Z,13.10
2023-04-10T21:23:21.473Z,13.10
2023-04-10T21:26:07.617Z,13.00
2023-04-10T21:28:53.927Z,12.80
2023-04-10T21:31:40.074Z,12.80
2023-04-10T21:34:26.075Z,12.90
2023-04-10T21:37:12.008Z,12.90
2023-04-10T21:39:58.193Z,12.80
2023-04-10T21:42:43.849Z,12.80
2023-04-10T21:45:30.604Z,12.80
2023-04-10T21:48:16.666Z,12.90
2023-04-10T21:51:03.292Z,12.80
2023-04-10T21:53:48.996Z,12.70
2023-04-10T21:56:36.904Z,12.70
2023-04-10T21:59:23.592Z,12.60
2023-04-10T22:02:11.118Z,12.70
2023-04-10T22:04:57.111Z,12.70
2023-04-10T22:07:42.853Z,12.70
2023-04-10T22:10:28.593Z,12.70
2023-04-10T22:13:27.433Z,12.90
2023-04-10T22:16:16.804Z,13.10
2023-04-10T22:19:02.811Z,12.70
2023-04-10T22:21:49.086Z,12.80
2023-04-10T22:24:35.381Z,13.00
2023-04-10T22:27:21.593Z,13.20
2023-04-10T22:30:10.049Z,13.10
2023-04-10T22:32:56.894Z,12.80
2023-04-10T22:35:43.078Z,13.10
2023-04-10T22:38:28.604Z,13.50
2023-04-10T22:41:14.180Z,13.70
2023-04-10T22:44:00.058Z,13.40
2023-04-10T22:46:48.331Z,13.30
2023-04-10T22:49:33.966Z,13.30
2023-04-10T22:52:20.148Z,13.20
2023-04-10T22:55:09.966Z,13.20
2023-04-10T22:57:55.792Z,13.00
2023-04-10T23:00:41.634Z,13.00
2023-04-10T23:03:27.547Z,13.10
2023-04-10T23:06:13.433Z,12.90
2023-04-10T23:08:59.413Z,12.60
2023-04-10T23:11:46.232Z,12.80
2023-04-10T23:14:35.795Z,12.70
2023-04-10T23:17:21.999Z,12.70
2023-04-10T23:20:09.396Z,12.70
2023-04-10T23:22:56.848Z,12.60
2023-04-10T23:25:43.368Z,12.40
2023-04-10T23:28:29.591Z,12.50
2023-04-10T23:31:16.403Z,12.70
2023-04-10T23:34:02.105Z,12.70
2023-04-10T23:36:47.942Z,12.60
2023-04-10T23:39:33.998Z,12.80
2023-04-10T23:42:19.897Z,12.80
2023-04-10T23:45:06.602Z,12.80
2023-04-10T23:47:52.962Z,12.80
2023-04-10T23:50:39.309Z,12.50
2023-04-10T23:53:25.224Z,12.40
2023-04-10T23:56:11.342Z,12.40
2023-04-10T23:58:57.728Z,12.50
